sensor_id;sensor_type;location;lat;lon;timestamp;temperature;humidity
20481;DHT22;10399;50.754;3.366;2023-08-07T00:02:14;15.20;99.90
20481;DHT22;10399;50.754;3.366;2023-08-07T00:04:42;15.20;99.90
20481;DHT22;10399;50.754;3.366;2023-08-07T00:07:09;15.10;99.90
20481;DHT22;10399;50.754;3.366;2023-08-07T00:09:36;15.10;99.90
20481;DHT22;10399;50.754;3.366;2023-08-07T00:12:04;15.20;99.90
20481;DHT22;10399;50.754;3.366;2023-08-07T00:14:31;15.20;99.90
20481;DHT22;10399;50.754;3.366;2023-08-07T00:16:58;15.20;99.90
20481;DHT22;10399;50.754;3.366;2023-08-07T00:19:25;15.20;99.90
20481;DHT22;10399;50.754;3.366;2023-08-07T00:21:53;15.10;99.90
20481;DHT22;10399;50.754;3.366;2023-08-07T00:24:20;15.00;99.90
20481;DHT22;10399;50.754;3.366;2023-08-07T00:26:47;15.00;99.90
20481;DHT22;10399;50.754;3.366;2023-08-07T00:29:14;15.00;99.90
20481;DHT22;10399;50.754;3.366;2023-08-07T00:31:42;15.10;99.90
20481;DHT22;10399;50.754;3.366;2023-08-07T00:34:09;15.10;99.90
20481;DHT22;10399;50.754;3.366;2023-08-07T00:36:37;15.10;99.90
20481;DHT22;10399;50.754;3.366;2023-08-07T00:39:04;15.10;99.90
20481;DHT22;10399;50.754;3.366;2023-08-07T00:41:32;15.20;99.90
20481;DHT22;10399;50.754;3.366;2023-08-07T00:43:59;15.30;99.90
20481;DHT22;10399;50.754;3.366;2023-08-07T00:46:28;15.00;99.90
20481;DHT22;10399;50.754;3.366;2023-08-07T00:48:56;15.10;99.90
20481;DHT22;10399;50.754;3.366;2023-08-07T00:51:24;15.10;99.90
20481;DHT22;10399;50.754;3.366;2023-08-07T00:53:51;15.00;99.90
20481;DHT22;10399;50.754;3.366;2023-08-07T00:56:19;15.00;99.90
20481;DHT22;10399;50.754;3.366;2023-08-07T00:58:48;15.00;99.90
20481;DHT22;10399;50.754;3.366;2023-08-07T01:01:15;15.10;99.90
20481;DHT22;10399;50.754;3.366;2023-08-07T01:03:47;15.00;99.90
20481;DHT22;10399;50.754;3.366;2023-08-07T01:06:14;15.00;99.90
20481;DHT22;10399;50.754;3.366;2023-08-07T01:08:42;14.90;99.90
20481;DHT22;10399;50.754;3.366;2023-08-07T01:16:24;14.80;99.90
20481;DHT22;10399;50.754;3.366;2023-08-07T01:18:56;14.70;99.90
20481;DHT22;10399;50.754;3.366;2023-08-07T01:21:24;14.80;99.90
20481;DHT22;10399;50.754;3.366;2023-08-07T01:23:53;14.70;99.90
20481;DHT22;10399;50.754;3.366;2023-08-07T01:26:21;14.70;99.90
20481;DHT22;10399;50.754;3.366;2023-08-07T01:29:15;14.70;99.90
20481;DHT22;10399;50.754;3.366;2023-08-07T01:31:46;14.60;99.90
20481;DHT22;10399;50.754;3.366;2023-08-07T01:34:18;14.50;99.90
20481;DHT22;10399;50.754;3.366;2023-08-07T01:36:50;14.50;99.90
20481;DHT22;10399;50.754;3.366;2023-08-07T01:39:18;14.40;99.90
20481;DHT22;10399;50.754;3.366;2023-08-07T01:41:47;14.50;99.90
20481;DHT22;10399;50.754;3.366;2023-08-07T01:44:16;14.50;99.90
20481;DHT22;10399;50.754;3.366;2023-08-07T01:46:43;14.50;99.90
20481;DHT22;10399;50.754;3.366;2023-08-07T01:49:19;14.50;99.90
20481;DHT22;10399;50.754;3.366;2023-08-07T01:51:46;14.40;99.90
20481;DHT22;10399;50.754;3.366;2023-08-07T01:54:20;14.50;99.90
20481;DHT22;10399;50.754;3.366;2023-08-07T01:56:48;14.70;99.90
20481;DHT22;10399;50.754;3.366;2023-08-07T01:59:15;14.60;99.90
20481;DHT22;10399;50.754;3.366;2023-08-07T02:01:43;14.50;99.90
20481;DHT22;10399;50.754;3.366;2023-08-07T02:04:10;14.40;99.90
20481;DHT22;10399;50.754;3.366;2023-08-07T02:06:37;14.40;99.90
20481;DHT22;10399;50.754;3.366;2023-08-07T02:09:10;14.30;99.90
20481;DHT22;10399;50.754;3.366;2023-08-07T02:11:43;14.30;99.90
20481;DHT22;10399;50.754;3.366;2023-08-07T02:14:13;14.30;99.90
20481;DHT22;10399;50.754;3.366;2023-08-07T02:16:41;14.30;99.90
20481;DHT22;10399;50.754;3.366;2023-08-07T02:19:08;14.30;99.90
20481;DHT22;10399;50.754;3.366;2023-08-07T02:21:35;14.30;99.90
20481;DHT22;10399;50.754;3.366;2023-08-07T02:24:05;14.30;99.90
20481;DHT22;10399;50.754;3.366;2023-08-07T02:26:33;14.30;99.90
20481;DHT22;10399;50.754;3.366;2023-08-07T02:29:01;14.40;99.90
20481;DHT22;10399;50.754;3.366;2023-08-07T02:31:30;14.40;99.90
20481;DHT22;10399;50.754;3.366;2023-08-07T02:33:58;14.30;99.90
20481;DHT22;10399;50.754;3.366;2023-08-07T02:36:25;14.20;99.90
20481;DHT22;10399;50.754;3.366;2023-08-07T02:38:52;14.20;99.90
20481;DHT22;10399;50.754;3.366;2023-08-07T02:41:20;14.20;99.90
20481;DHT22;10399;50.754;3.366;2023-08-07T02:43:49;14.40;99.90
20481;DHT22;10399;50.754;3.366;2023-08-07T02:46:16;14.30;99.90
20481;DHT22;10399;50.754;3.366;2023-08-07T02:48:44;14.30;99.90
20481;DHT22;10399;50.754;3.366;2023-08-07T02:51:11;14.20;99.90
20481;DHT22;10399;50.754;3.366;2023-08-07T02:53:38;14.30;99.90
20481;DHT22;10399;50.754;3.366;2023-08-07T02:56:06;14.30;99.90
20481;DHT22;10399;50.754;3.366;2023-08-07T02:58:33;14.40;99.90
20481;DHT22;10399;50.754;3.366;2023-08-07T03:01:04;14.40;99.90
20481;DHT22;10399;50.754;3.366;2023-08-07T03:03:34;14.40;99.90
20481;DHT22;10399;50.754;3.366;2023-08-07T03:06:01;14.20;99.90
20481;DHT22;10399;50.754;3.366;2023-08-07T03:08:28;14.30;99.90
20481;DHT22;10399;50.754;3.366;2023-08-07T03:10:57;14.30;99.90
20481;DHT22;10399;50.754;3.366;2023-08-07T03:13:26;14.20;99.90
20481;DHT22;10399;50.754;3.366;2023-08-07T03:16:00;14.20;99.90
20481;DHT22;10399;50.754;3.366;2023-08-07T03:18:28;14.20;99.90
20481;DHT22;10399;50.754;3.366;2023-08-07T03:20:56;14.20;99.90
20481;DHT22;10399;50.754;3.366;2023-08-07T03:23:25;14.20;99.90
20481;DHT22;10399;50.754;3.366;2023-08-07T03:26:07;14.30;99.90
20481;DHT22;10399;50.754;3.366;2023-08-07T03:28:45;14.30;99.90
20481;DHT22;10399;50.754;3.366;2023-08-07T03:31:14;14.30;99.90
20481;DHT22;10399;50.754;3.366;2023-08-07T03:33:42;14.20;99.90
20481;DHT22;10399;50.754;3.366;2023-08-07T03:36:09;14.30;99.90
20481;DHT22;10399;50.754;3.366;2023-08-07T03:38:37;14.20;99.90
20481;DHT22;10399;50.754;3.366;2023-08-07T03:41:04;14.20;99.90
20481;DHT22;10399;50.754;3.366;2023-08-07T03:43:31;14.20;99.90
20481;DHT22;10399;50.754;3.366;2023-08-07T03:45:58;14.30;99.90
20481;DHT22;10399;50.754;3.366;2023-08-07T03:48:30;14.10;99.90
20481;DHT22;10399;50.754;3.366;2023-08-07T03:51:05;14.10;99.90
20481;DHT22;10399;50.754;3.366;2023-08-07T03:53:32;14.10;99.90
20481;DHT22;10399;50.754;3.366;2023-08-07T03:55:59;14.10;99.90
20481;DHT22;10399;50.754;3.366;2023-08-07T03:58:26;14.10;99.90
20481;DHT22;10399;50.754;3.366;2023-08-07T04:00:55;14.10;99.90
20481;DHT22;10399;50.754;3.366;2023-08-07T04:03:23;14.10;99.90
20481;DHT22;10399;50.754;3.366;2023-08-07T04:05:55;14.00;99.90
20481;DHT22;10399;50.754;3.366;2023-08-07T04:08:23;14.10;99.90
20481;DHT22;10399;50.754;3.366;2023-08-07T04:13:28;14.10;99.90
20481;DHT22;10399;50.754;3.366;2023-08-07T04:15:55;14.10;99.90
20481;DHT22;10399;50.754;3.366;2023-08-07T04:18:23;14.20;99.90
20481;DHT22;10399;50.754;3.366;2023-08-07T04:20:53;14.20;99.90
20481;DHT22;10399;50.754;3.366;2023-08-07T04:23:22;14.10;99.90
20481;DHT22;10399;50.754;3.366;2023-08-07T04:25:50;14.10;99.90
20481;DHT22;10399;50.754;3.366;2023-08-07T04:28:17;14.20;99.90
20481;DHT22;10399;50.754;3.366;2023-08-07T04:30:48;14.10;99.90
20481;DHT22;10399;50.754;3.366;2023-08-07T04:33:15;14.10;99.90
20481;DHT22;10399;50.754;3.366;2023-08-07T04:35:42;14.10;99.90
20481;DHT22;10399;50.754;3.366;2023-08-07T04:38:10;14.10;99.90
20481;DHT22;10399;50.754;3.366;2023-08-07T04:40:37;14.20;99.90
20481;DHT22;10399;50.754;3.366;2023-08-07T04:43:04;14.30;99.90
20481;DHT22;10399;50.754;3.366;2023-08-07T04:45:32;14.30;99.90
20481;DHT22;10399;50.754;3.366;2023-08-07T04:48:01;14.40;99.90
20481;DHT22;10399;50.754;3.366;2023-08-07T04:50:30;14.40;99.90
20481;DHT22;10399;50.754;3.366;2023-08-07T04:52:57;14.30;99.90
20481;DHT22;10399;50.754;3.366;2023-08-07T04:55:25;14.40;99.90
20481;DHT22;10399;50.754;3.366;2023-08-07T04:57:53;14.60;99.90
20481;DHT22;10399;50.754;3.366;2023-08-07T05:00:23;14.70;99.90
20481;DHT22;10399;50.754;3.366;2023-08-07T05:02:51;14.70;99.90
20481;DHT22;10399;50.754;3.366;2023-08-07T05:05:18;14.80;99.90
20481;DHT22;10399;50.754;3.366;2023-08-07T05:07:48;14.60;99.90
20481;DHT22;10399;50.754;3.366;2023-08-07T05:10:16;14.80;99.90
20481;DHT22;10399;50.754;3.366;2023-08-07T05:12:43;14.70;99.90
20481;DHT22;10399;50.754;3.366;2023-08-07T05:15:11;14.80;99.90
20481;DHT22;10399;50.754;3.366;2023-08-07T05:17:39;14.90;99.90
20481;DHT22;10399;50.754;3.366;2023-08-07T05:20:07;15.00;99.90
20481;DHT22;10399;50.754;3.366;2023-08-07T05:22:37;14.90;99.90
20481;DHT22;10399;50.754;3.366;2023-08-07T05:25:04;14.90;99.90
20481;DHT22;10399;50.754;3.366;2023-08-07T05:27:32;14.90;99.90
20481;DHT22;10399;50.754;3.366;2023-08-07T05:29:59;15.00;99.90
20481;DHT22;10399;50.754;3.366;2023-08-07T05:32:27;15.10;99.90
20481;DHT22;10399;50.754;3.366;2023-08-07T05:34:55;15.00;99.90
20481;DHT22;10399;50.754;3.366;2023-08-07T05:37:23;15.10;99.90
20481;DHT22;10399;50.754;3.366;2023-08-07T05:39:50;15.20;99.90
20481;DHT22;10399;50.754;3.366;2023-08-07T05:42:17;15.30;99.90
20481;DHT22;10399;50.754;3.366;2023-08-07T05:44:45;15.20;99.90
20481;DHT22;10399;50.754;3.366;2023-08-07T05:47:15;14.90;99.90
20481;DHT22;10399;50.754;3.366;2023-08-07T05:49:42;15.00;99.90
20481;DHT22;10399;50.754;3.366;2023-08-07T05:52:10;15.10;99.90
20481;DHT22;10399;50.754;3.366;2023-08-07T05:54:37;15.20;99.90
20481;DHT22;10399;50.754;3.366;2023-08-07T05:57:05;15.20;99.90
20481;DHT22;10399;50.754;3.366;2023-08-07T05:59:32;15.20;99.90
20481;DHT22;10399;50.754;3.366;2023-08-07T06:02:02;15.30;99.90
20481;DHT22;10399;50.754;3.366;2023-08-07T06:04:33;15.30;99.90
20481;DHT22;10399;50.754;3.366;2023-08-07T06:07:03;15.30;99.90
20481;DHT22;10399;50.754;3.366;2023-08-07T06:09:30;15.20;99.90
20481;DHT22;10399;50.754;3.366;2023-08-07T06:11:58;15.30;99.90
20481;DHT22;10399;50.754;3.366;2023-08-07T06:14:25;15.40;99.90
20481;DHT22;10399;50.754;3.366;2023-08-07T06:16:53;15.50;99.90
20481;DHT22;10399;50.754;3.366;2023-08-07T06:19:20;15.60;99.90
20481;DHT22;10399;50.754;3.366;2023-08-07T06:21:58;15.60;99.90
20481;DHT22;10399;50.754;3.366;2023-08-07T06:24:28;15.70;99.90
20481;DHT22;10399;50.754;3.366;2023-08-07T06:26:55;15.70;99.90
20481;DHT22;10399;50.754;3.366;2023-08-07T06:29:22;15.90;99.90
20481;DHT22;10399;50.754;3.366;2023-08-07T06:31:49;15.80;99.90
20481;DHT22;10399;50.754;3.366;2023-08-07T06:34:17;16.00;99.90
20481;DHT22;10399;50.754;3.366;2023-08-07T06:36:44;16.10;99.90
20481;DHT22;10399;50.754;3.366;2023-08-07T06:39:11;16.20;99.90
20481;DHT22;10399;50.754;3.366;2023-08-07T06:41:39;16.20;99.90
20481;DHT22;10399;50.754;3.366;2023-08-07T06:44:08;16.20;99.90
20481;DHT22;10399;50.754;3.366;2023-08-07T06:46:35;16.30;99.90
20481;DHT22;10399;50.754;3.366;2023-08-07T06:49:03;16.30;99.90
20481;DHT22;10399;50.754;3.366;2023-08-07T06:51:30;16.60;99.90
20481;DHT22;10399;50.754;3.366;2023-08-07T06:53:57;16.60;99.90
20481;DHT22;10399;50.754;3.366;2023-08-07T06:56:25;16.50;99.90
20481;DHT22;10399;50.754;3.366;2023-08-07T06:58:52;16.70;99.90
20481;DHT22;10399;50.754;3.366;2023-08-07T07:01:19;16.80;99.90
20481;DHT22;10399;50.754;3.366;2023-08-07T07:03:49;16.80;99.90
20481;DHT22;10399;50.754;3.366;2023-08-07T07:06:20;16.90;99.90
20481;DHT22;10399;50.754;3.366;2023-08-07T07:08:48;17.00;99.90
20481;DHT22;10399;50.754;3.366;2023-08-07T07:11:15;17.10;99.90
20481;DHT22;10399;50.754;3.366;2023-08-07T07:13:42;17.00;99.90
20481;DHT22;10399;50.754;3.366;2023-08-07T07:16:09;17.20;99.90
20481;DHT22;10399;50.754;3.366;2023-08-07T07:18:39;17.10;99.90
20481;DHT22;10399;50.754;3.366;2023-08-07T07:21:06;17.10;99.90
20481;DHT22;10399;50.754;3.366;2023-08-07T07:23:33;17.30;99.90
20481;DHT22;10399;50.754;3.366;2023-08-07T07:26:00;17.30;99.90
20481;DHT22;10399;50.754;3.366;2023-08-07T07:28:27;17.50;99.90
20481;DHT22;10399;50.754;3.366;2023-08-07T07:30:54;17.70;99.90
20481;DHT22;10399;50.754;3.366;2023-08-07T07:33:22;17.90;99.90
20481;DHT22;10399;50.754;3.366;2023-08-07T07:35:50;18.00;99.90
20481;DHT22;10399;50.754;3.366;2023-08-07T07:38:17;18.10;99.90
20481;DHT22;10399;50.754;3.366;2023-08-07T07:40:44;18.20;99.90
20481;DHT22;10399;50.754;3.366;2023-08-07T07:43:12;18.40;99.90
20481;DHT22;10399;50.754;3.366;2023-08-07T07:45:39;18.70;99.90
20481;DHT22;10399;50.754;3.366;2023-08-07T07:48:07;18.70;99.90
20481;DHT22;10399;50.754;3.366;2023-08-07T07:50:34;18.80;99.90
20481;DHT22;10399;50.754;3.366;2023-08-07T07:53:02;18.90;99.90
20481;DHT22;10399;50.754;3.366;2023-08-07T07:55:30;19.00;99.90
20481;DHT22;10399;50.754;3.366;2023-08-07T07:57:57;19.20;99.90
20481;DHT22;10399;50.754;3.366;2023-08-07T08:00:24;19.30;99.90
20481;DHT22;10399;50.754;3.366;2023-08-07T08:02:54;19.30;99.90
20481;DHT22;10399;50.754;3.366;2023-08-07T08:05:22;19.50;99.90
20481;DHT22;10399;50.754;3.366;2023-08-07T08:07:49;19.60;99.90
20481;DHT22;10399;50.754;3.366;2023-08-07T08:10:17;19.80;99.90
20481;DHT22;10399;50.754;3.366;2023-08-07T08:12:44;20.00;99.90
20481;DHT22;10399;50.754;3.366;2023-08-07T08:15:11;20.00;99.90
20481;DHT22;10399;50.754;3.366;2023-08-07T08:17:38;19.60;99.90
20481;DHT22;10399;50.754;3.366;2023-08-07T08:20:07;19.60;99.90
20481;DHT22;10399;50.754;3.366;2023-08-07T08:22:35;19.90;99.90
20481;DHT22;10399;50.754;3.366;2023-08-07T08:25:04;20.10;99.90
20481;DHT22;10399;50.754;3.366;2023-08-07T08:27:32;20.50;99.90
20481;DHT22;10399;50.754;3.366;2023-08-07T08:29:59;20.50;99.90
20481;DHT22;10399;50.754;3.366;2023-08-07T08:32:26;20.70;99.90
20481;DHT22;10399;50.754;3.366;2023-08-07T08:34:54;21.00;99.90
20481;DHT22;10399;50.754;3.366;2023-08-07T08:37:22;21.20;99.90
20481;DHT22;10399;50.754;3.366;2023-08-07T08:39:49;21.40;99.90
20481;DHT22;10399;50.754;3.366;2023-08-07T08:42:17;21.40;99.90
20481;DHT22;10399;50.754;3.366;2023-08-07T08:44:55;21.60;99.90
20481;DHT22;10399;50.754;3.366;2023-08-07T08:47:25;22.00;99.90
20481;DHT22;10399;50.754;3.366;2023-08-07T08:50:07;22.20;99.90
20481;DHT22;10399;50.754;3.366;2023-08-07T08:52:37;22.10;99.90
20481;DHT22;10399;50.754;3.366;2023-08-07T08:55:05;21.80;99.90
20481;DHT22;10399;50.754;3.366;2023-08-07T08:57:33;21.80;99.90
20481;DHT22;10399;50.754;3.366;2023-08-07T09:00:02;22.00;99.90
20481;DHT22;10399;50.754;3.366;2023-08-07T09:02:51;22.30;99.90
20481;DHT22;10399;50.754;3.366;2023-08-07T09:05:21;22.80;99.90
20481;DHT22;10399;50.754;3.366;2023-08-07T09:07:49;23.10;99.90
20481;DHT22;10399;50.754;3.366;2023-08-07T09:10:16;23.00;99.90
20481;DHT22;10399;50.754;3.366;2023-08-07T09:13:03;22.70;99.90
20481;DHT22;10399;50.754;3.366;2023-08-07T09:15:33;22.40;99.90
20481;DHT22;10399;50.754;3.366;2023-08-07T09:18:03;21.90;99.90
20481;DHT22;10399;50.754;3.366;2023-08-07T09:20:36;22.00;99.90
20481;DHT22;10399;50.754;3.366;2023-08-07T09:23:06;22.10;99.90
20481;DHT22;10399;50.754;3.366;2023-08-07T09:25:34;22.30;99.90
20481;DHT22;10399;50.754;3.366;2023-08-07T09:28:03;22.90;99.90
20481;DHT22;10399;50.754;3.366;2023-08-07T09:30:35;23.60;99.90
20481;DHT22;10399;50.754;3.366;2023-08-07T09:33:04;23.90;99.90
20481;DHT22;10399;50.754;3.366;2023-08-07T09:35:33;23.90;99.90
20481;DHT22;10399;50.754;3.366;2023-08-07T09:38:01;23.40;99.90
20481;DHT22;10399;50.754;3.366;2023-08-07T09:40:29;23.10;99.90
20481;DHT22;10399;50.754;3.366;2023-08-07T09:43:00;22.90;99.90
20481;DHT22;10399;50.754;3.366;2023-08-07T09:45:28;22.50;99.90
20481;DHT22;10399;50.754;3.366;2023-08-07T09:47:58;22.10;99.90
20481;DHT22;10399;50.754;3.366;2023-08-07T09:50:26;22.20;99.90
20481;DHT22;10399;50.754;3.366;2023-08-07T09:52:54;22.10;99.90
20481;DHT22;10399;50.754;3.366;2023-08-07T09:55:25;22.20;99.90
20481;DHT22;10399;50.754;3.366;2023-08-07T09:57:53;22.20;99.90
20481;DHT22;10399;50.754;3.366;2023-08-07T10:00:21;22.00;99.90
20481;DHT22;10399;50.754;3.366;2023-08-07T10:02:50;22.50;99.90
20481;DHT22;10399;50.754;3.366;2023-08-07T10:05:18;23.10;99.90
20481;DHT22;10399;50.754;3.366;2023-08-07T10:07:46;23.60;99.90
20481;DHT22;10399;50.754;3.366;2023-08-07T10:10:14;23.60;99.90
20481;DHT22;10399;50.754;3.366;2023-08-07T10:12:43;23.20;99.90
20481;DHT22;10399;50.754;3.366;2023-08-07T10:15:14;23.10;99.90
20481;DHT22;10399;50.754;3.366;2023-08-07T10:17:42;23.30;99.90
20481;DHT22;10399;50.754;3.366;2023-08-07T10:20:12;23.00;99.90
20481;DHT22;10399;50.754;3.366;2023-08-07T10:22:41;22.80;99.90
20481;DHT22;10399;50.754;3.366;2023-08-07T10:25:09;23.10;99.90
20481;DHT22;10399;50.754;3.366;2023-08-07T10:27:38;23.80;99.90
20481;DHT22;10399;50.754;3.366;2023-08-07T10:30:10;24.60;99.90
20481;DHT22;10399;50.754;3.366;2023-08-07T10:32:43;25.40;99.90
20481;DHT22;10399;50.754;3.366;2023-08-07T10:35:33;25.80;99.90
20481;DHT22;10399;50.754;3.366;2023-08-07T10:38:10;25.80;99.90
20481;DHT22;10399;50.754;3.366;2023-08-07T10:43:42;25.30;99.90
20481;DHT22;10399;50.754;3.366;2023-08-07T10:46:21;24.80;99.90
20481;DHT22;10399;50.754;3.366;2023-08-07T10:48:55;24.60;99.90
20481;DHT22;10399;50.754;3.366;2023-08-07T10:51:29;24.70;99.90
20481;DHT22;10399;50.754;3.366;2023-08-07T10:54:01;25.40;99.90
20481;DHT22;10399;50.754;3.366;2023-08-07T10:56:35;25.90;99.90
20481;DHT22;10399;50.754;3.366;2023-08-07T10:59:11;25.70;99.90
20481;DHT22;10399;50.754;3.366;2023-08-07T11:04:11;25.00;99.90
20481;DHT22;10399;50.754;3.366;2023-08-07T11:06:40;25.00;99.90
20481;DHT22;10399;50.754;3.366;2023-08-07T11:09:09;25.30;99.90
20481;DHT22;10399;50.754;3.366;2023-08-07T11:11:48;25.90;99.90
20481;DHT22;10399;50.754;3.366;2023-08-07T11:14:18;25.90;99.90
20481;DHT22;10399;50.754;3.366;2023-08-07T11:16:47;25.40;99.90
20481;DHT22;10399;50.754;3.366;2023-08-07T11:19:16;25.60;99.90
20481;DHT22;10399;50.754;3.366;2023-08-07T11:21:44;25.70;99.90
20481;DHT22;10399;50.754;3.366;2023-08-07T11:24:16;26.20;99.90
20481;DHT22;10399;50.754;3.366;2023-08-07T11:26:46;26.00;99.90
20481;DHT22;10399;50.754;3.366;2023-08-07T11:29:20;26.40;99.90
20481;DHT22;10399;50.754;3.366;2023-08-07T11:31:49;26.60;99.90
20481;DHT22;10399;50.754;3.366;2023-08-07T11:34:17;27.10;99.90
20481;DHT22;10399;50.754;3.366;2023-08-07T11:36:46;27.50;99.90
20481;DHT22;10399;50.754;3.366;2023-08-07T11:39:14;27.10;99.90
20481;DHT22;10399;50.754;3.366;2023-08-07T11:41:41;27.50;99.90
20481;DHT22;10399;50.754;3.366;2023-08-07T11:44:08;27.40;99.90
20481;DHT22;10399;50.754;3.366;2023-08-07T11:46:37;27.40;99.90
20481;DHT22;10399;50.754;3.366;2023-08-07T11:49:04;27.10;99.90
20481;DHT22;10399;50.754;3.366;2023-08-07T11:51:32;26.70;99.90
20481;DHT22;10399;50.754;3.366;2023-08-07T11:54:00;27.00;99.90
20481;DHT22;10399;50.754;3.366;2023-08-07T11:56:28;27.30;99.90
20481;DHT22;10399;50.754;3.366;2023-08-07T11:59:02;27.60;99.90
20481;DHT22;10399;50.754;3.366;2023-08-07T12:01:30;27.60;99.90
20481;DHT22;10399;50.754;3.366;2023-08-07T12:06:37;26.50;99.90
20481;DHT22;10399;50.754;3.366;2023-08-07T12:09:07;26.00;99.90
20481;DHT22;10399;50.754;3.366;2023-08-07T12:11:40;25.80;99.90
20481;DHT22;10399;50.754;3.366;2023-08-07T12:14:07;25.90;99.90
20481;DHT22;10399;50.754;3.366;2023-08-07T12:16:37;25.90;99.90
20481;DHT22;10399;50.754;3.366;2023-08-07T12:19:04;25.80;99.90
20481;DHT22;10399;50.754;3.366;2023-08-07T12:21:31;25.40;99.90
20481;DHT22;10399;50.754;3.366;2023-08-07T12:24:00;25.10;99.90
20481;DHT22;10399;50.754;3.366;2023-08-07T12:26:30;24.50;99.90
20481;DHT22;10399;50.754;3.366;2023-08-07T12:28:57;24.70;99.90
20481;DHT22;10399;50.754;3.366;2023-08-07T12:31:24;24.70;99.90
20481;DHT22;10399;50.754;3.366;2023-08-07T12:33:52;24.90;99.90
20481;DHT22;10399;50.754;3.366;2023-08-07T12:36:20;24.80;99.90
20481;DHT22;10399;50.754;3.366;2023-08-07T12:38:47;25.00;99.90
20481;DHT22;10399;50.754;3.366;2023-08-07T12:41:15;25.00;99.90
20481;DHT22;10399;50.754;3.366;2023-08-07T12:43:47;25.10;99.90
20481;DHT22;10399;50.754;3.366;2023-08-07T12:46:14;25.10;99.90
20481;DHT22;10399;50.754;3.366;2023-08-07T12:48:44;25.10;99.90
20481;DHT22;10399;50.754;3.366;2023-08-07T12:51:11;25.00;99.90
20481;DHT22;10399;50.754;3.366;2023-08-07T12:53:39;25.10;99.90
20481;DHT22;10399;50.754;3.366;2023-08-07T12:56:06;25.60;99.90
20481;DHT22;10399;50.754;3.366;2023-08-07T12:58:33;26.10;99.90
20481;DHT22;10399;50.754;3.366;2023-08-07T13:01:01;26.90;99.90
20481;DHT22;10399;50.754;3.366;2023-08-07T13:03:28;26.50;99.90
20481;DHT22;10399;50.754;3.366;2023-08-07T13:05:56;25.30;99.90
20481;DHT22;10399;50.754;3.366;2023-08-07T13:08:24;24.80;99.90
20481;DHT22;10399;50.754;3.366;2023-08-07T13:10:52;24.70;99.90
20481;DHT22;10399;50.754;3.366;2023-08-07T13:13:21;24.70;99.90
20481;DHT22;10399;50.754;3.366;2023-08-07T13:15:48;24.70;99.90
20481;DHT22;10399;50.754;3.366;2023-08-07T13:18:16;24.80;99.90
20481;DHT22;10399;50.754;3.366;2023-08-07T13:20:44;24.80;99.90
20481;DHT22;10399;50.754;3.366;2023-08-07T13:23:13;24.90;99.90
20481;DHT22;10399;50.754;3.366;2023-08-07T13:25:41;24.50;99.90
20481;DHT22;10399;50.754;3.366;2023-08-07T13:28:08;25.00;99.90
20481;DHT22;10399;50.754;3.366;2023-08-07T13:30:36;24.70;99.90
20481;DHT22;10399;50.754;3.366;2023-08-07T13:33:04;24.80;99.90
20481;DHT22;10399;50.754;3.366;2023-08-07T13:35:32;25.00;99.90
20481;DHT22;10399;50.754;3.366;2023-08-07T13:38:03;24.90;99.90
20481;DHT22;10399;50.754;3.366;2023-08-07T13:40:35;24.60;99.90
20481;DHT22;10399;50.754;3.366;2023-08-07T13:43:02;24.70;99.90
20481;DHT22;10399;50.754;3.366;2023-08-07T13:45:36;24.50;99.90
20481;DHT22;10399;50.754;3.366;2023-08-07T13:48:04;24.70;99.90
20481;DHT22;10399;50.754;3.366;2023-08-07T13:50:33;24.60;99.90
20481;DHT22;10399;50.754;3.366;2023-08-07T13:53:01;24.50;99.90
20481;DHT22;10399;50.754;3.366;2023-08-07T13:55:40;24.40;99.90
20481;DHT22;10399;50.754;3.366;2023-08-07T13:58:08;24.50;99.90
20481;DHT22;10399;50.754;3.366;2023-08-07T14:00:37;24.50;99.90
20481;DHT22;10399;50.754;3.366;2023-08-07T14:03:06;24.30;99.90
20481;DHT22;10399;50.754;3.366;2023-08-07T14:05:33;24.20;99.90
20481;DHT22;10399;50.754;3.366;2023-08-07T14:08:00;24.40;99.90
20481;DHT22;10399;50.754;3.366;2023-08-07T14:10:28;24.30;99.90
20481;DHT22;10399;50.754;3.366;2023-08-07T14:12:58;24.30;99.90
20481;DHT22;10399;50.754;3.366;2023-08-07T14:15:25;24.60;99.90
20481;DHT22;10399;50.754;3.366;2023-08-07T14:17:53;24.70;99.90
20481;DHT22;10399;50.754;3.366;2023-08-07T14:20:21;24.70;99.90
20481;DHT22;10399;50.754;3.366;2023-08-07T14:22:50;24.30;99.90
20481;DHT22;10399;50.754;3.366;2023-08-07T14:25:17;23.40;99.90
20481;DHT22;10399;50.754;3.366;2023-08-07T14:27:46;23.40;99.90
20481;DHT22;10399;50.754;3.366;2023-08-07T14:30:13;22.70;99.90
20481;DHT22;10399;50.754;3.366;2023-08-07T14:32:44;22.80;99.90
20481;DHT22;10399;50.754;3.366;2023-08-07T14:35:13;22.80;99.90
20481;DHT22;10399;50.754;3.366;2023-08-07T14:37:41;22.90;99.90
20481;DHT22;10399;50.754;3.366;2023-08-07T14:40:09;22.90;99.90
20481;DHT22;10399;50.754;3.366;2023-08-07T14:42:36;22.90;99.90
20481;DHT22;10399;50.754;3.366;2023-08-07T14:45:04;22.90;99.90
20481;DHT22;10399;50.754;3.366;2023-08-07T14:47:32;23.00;99.90
20481;DHT22;10399;50.754;3.366;2023-08-07T14:49:59;22.90;99.90
20481;DHT22;10399;50.754;3.366;2023-08-07T14:52:26;22.90;99.90
20481;DHT22;10399;50.754;3.366;2023-08-07T14:54:54;22.90;99.90
20481;DHT22;10399;50.754;3.366;2023-08-07T14:57:24;22.90;99.90
20481;DHT22;10399;50.754;3.366;2023-08-07T14:59:51;23.00;99.90
20481;DHT22;10399;50.754;3.366;2023-08-07T15:02:19;23.00;99.90
20481;DHT22;10399;50.754;3.366;2023-08-07T15:04:49;23.00;99.90
20481;DHT22;10399;50.754;3.366;2023-08-07T15:07:16;23.10;99.90
20481;DHT22;10399;50.754;3.366;2023-08-07T15:09:44;22.90;99.90
20481;DHT22;10399;50.754;3.366;2023-08-07T15:12:12;22.90;99.90
20481;DHT22;10399;50.754;3.366;2023-08-07T15:14:40;22.70;99.90
20481;DHT22;10399;50.754;3.366;2023-08-07T15:17:07;22.70;99.90
20481;DHT22;10399;50.754;3.366;2023-08-07T15:19:34;22.60;99.90
20481;DHT22;10399;50.754;3.366;2023-08-07T15:22:02;22.50;99.90
20481;DHT22;10399;50.754;3.366;2023-08-07T15:24:30;22.50;99.90
20481;DHT22;10399;50.754;3.366;2023-08-07T15:26:57;22.40;99.90
20481;DHT22;10399;50.754;3.366;2023-08-07T15:29:28;22.50;99.90
20481;DHT22;10399;50.754;3.366;2023-08-07T15:31:55;22.30;99.90
20481;DHT22;10399;50.754;3.366;2023-08-07T15:34:23;22.20;99.90
20481;DHT22;10399;50.754;3.366;2023-08-07T15:36:51;22.30;99.90
20481;DHT22;10399;50.754;3.366;2023-08-07T15:39:18;22.40;99.90
20481;DHT22;10399;50.754;3.366;2023-08-07T15:41:45;22.40;99.90
20481;DHT22;10399;50.754;3.366;2023-08-07T15:44:13;22.70;99.90
20481;DHT22;10399;50.754;3.366;2023-08-07T15:46:40;23.00;99.90
20481;DHT22;10399;50.754;3.366;2023-08-07T15:49:07;23.50;99.90
20481;DHT22;10399;50.754;3.366;2023-08-07T15:51:35;24.20;99.90
20481;DHT22;10399;50.754;3.366;2023-08-07T15:54:02;24.50;99.90
20481;DHT22;10399;50.754;3.366;2023-08-07T15:56:30;25.10;99.90